sensor_id;sensor_type;location;lat;lon;timestamp;P1;durP1;ratioP1;P2;durP2;ratioP2
67602;SDS011;54417;47.454;18.918;2022-10-17T00:00:10;18.30;;;9.45;;
67602;SDS011;54417;47.454;18.918;2022-10-17T00:05:39;14.75;;;9.38;;
67602;SDS011;54417;47.454;18.918;2022-10-17T00:11:04;16.92;;;9.90;;
67602;SDS011;54417;47.454;18.918;2022-10-17T00:16:32;17.00;;;9.05;;
67602;SDS011;54417;47.454;18.918;2022-10-17T00:21:59;13.50;;;9.10;;
67602;SDS011;54417;47.454;18.918;2022-10-17T00:27:22;16.02;;;9.25;;
67602;SDS011;54417;47.454;18.918;2022-10-17T00:32:47;13.07;;;9.15;;
67602;SDS011;54417;47.454;18.918;2022-10-17T00:38:12;14.23;;;9.70;;
67602;SDS011;54417;47.454;18.918;2022-10-17T00:43:49;17.00;;;9.93;;
67602;SDS011;54417;47.454;18.918;2022-10-17T00:49:14;15.10;;;9.75;;
67602;SDS011;54417;47.454;18.918;2022-10-17T00:54:40;14.57;;;9.13;;
67602;SDS011;54417;47.454;18.918;2022-10-17T01:00:08;14.57;;;9.48;;
67602;SDS011;54417;47.454;18.918;2022-10-17T01:05:33;18.63;;;9.60;;
67602;SDS011;54417;47.454;18.918;2022-10-17T01:11:00;17.38;;;10.35;;
67602;SDS011;54417;47.454;18.918;2022-10-17T01:16:36;11.95;;;9.63;;
67602;SDS011;54417;47.454;18.918;2022-10-17T01:22:06;13.23;;;8.45;;
67602;SDS011;54417;47.454;18.918;2022-10-17T01:27:42;13.85;;;8.63;;
67602;SDS011;54417;47.454;18.918;2022-10-17T01:33:21;13.95;;;9.40;;
67602;SDS011;54417;47.454;18.918;2022-10-17T01:38:56;15.43;;;9.55;;
67602;SDS011;54417;47.454;18.918;2022-10-17T01:49:53;14.15;;;8.73;;
67602;SDS011;54417;47.454;18.918;2022-10-17T01:55:20;12.00;;;8.05;;
67602;SDS011;54417;47.454;18.918;2022-10-17T02:00:48;12.32;;;8.20;;
67602;SDS011;54417;47.454;18.918;2022-10-17T02:06:16;14.40;;;8.95;;
67602;SDS011;54417;47.454;18.918;2022-10-17T02:11:40;13.27;;;7.70;;
67602;SDS011;54417;47.454;18.918;2022-10-17T02:17:07;12.02;;;7.68;;
67602;SDS011;54417;47.454;18.918;2022-10-17T02:22:41;13.82;;;7.75;;
67602;SDS011;54417;47.454;18.918;2022-10-17T02:28:13;9.57;;;6.80;;
67602;SDS011;54417;47.454;18.918;2022-10-17T02:33:42;13.73;;;8.18;;
67602;SDS011;54417;47.454;18.918;2022-10-17T02:39:11;12.02;;;8.15;;
67602;SDS011;54417;47.454;18.918;2022-10-17T02:44:36;12.70;;;8.00;;
67602;SDS011;54417;47.454;18.918;2022-10-17T02:50:03;11.03;;;8.13;;
67602;SDS011;54417;47.454;18.918;2022-10-17T02:55:29;11.05;;;7.60;;
67602;SDS011;54417;47.454;18.918;2022-10-17T03:00:56;14.32;;;7.95;;
67602;SDS011;54417;47.454;18.918;2022-10-17T03:06:21;12.77;;;7.95;;
67602;SDS011;54417;47.454;18.918;2022-10-17T03:11:46;11.88;;;7.68;;
67602;SDS011;54417;47.454;18.918;2022-10-17T03:17:09;13.90;;;7.93;;
67602;SDS011;54417;47.454;18.918;2022-10-17T03:22:33;11.32;;;7.07;;
67602;SDS011;54417;47.454;18.918;2022-10-17T03:28:00;11.75;;;7.68;;
67602;SDS011;54417;47.454;18.918;2022-10-17T03:33:24;9.35;;;6.72;;
67602;SDS011;54417;47.454;18.918;2022-10-17T03:38:48;15.20;;;8.02;;
67602;SDS011;54417;47.454;18.918;2022-10-17T03:44:17;12.45;;;7.68;;
67602;SDS011;54417;47.454;18.918;2022-10-17T03:49:40;10.48;;;7.32;;
67602;SDS011;54417;47.454;18.918;2022-10-17T03:55:05;11.55;;;7.90;;
67602;SDS011;54417;47.454;18.918;2022-10-17T04:00:30;12.40;;;7.80;;
67602;SDS011;54417;47.454;18.918;2022-10-17T04:05:56;11.35;;;8.57;;
67602;SDS011;54417;47.454;18.918;2022-10-17T04:11:21;11.57;;;8.63;;
67602;SDS011;54417;47.454;18.918;2022-10-17T04:16:47;16.25;;;7.72;;
67602;SDS011;54417;47.454;18.918;2022-10-17T04:22:14;13.15;;;8.82;;
67602;SDS011;54417;47.454;18.918;2022-10-17T04:27:38;11.55;;;7.30;;
67602;SDS011;54417;47.454;18.918;2022-10-17T04:33:03;10.95;;;7.70;;
67602;SDS011;54417;47.454;18.918;2022-10-17T04:38:27;10.75;;;7.97;;
67602;SDS011;54417;47.454;18.918;2022-10-17T04:43:51;13.68;;;8.57;;
67602;SDS011;54417;47.454;18.918;2022-10-17T04:49:17;13.60;;;8.93;;
67602;SDS011;54417;47.454;18.918;2022-10-17T04:54:45;10.23;;;8.35;;
67602;SDS011;54417;47.454;18.918;2022-10-17T05:00:10;14.57;;;8.20;;
67602;SDS011;54417;47.454;18.918;2022-10-17T05:05:57;11.32;;;8.32;;
67602;SDS011;54417;47.454;18.918;2022-10-17T05:11:21;14.48;;;8.50;;
67602;SDS011;54417;47.454;18.918;2022-10-17T05:16:46;17.70;;;9.02;;
67602;SDS011;54417;47.454;18.918;2022-10-17T05:22:12;16.92;;;9.15;;
67602;SDS011;54417;47.454;18.918;2022-10-17T05:27:36;19.65;;;8.45;;
67602;SDS011;54417;47.454;18.918;2022-10-17T05:33:00;14.55;;;9.63;;
67602;SDS011;54417;47.454;18.918;2022-10-17T05:38:27;15.02;;;10.27;;
67602;SDS011;54417;47.454;18.918;2022-10-17T05:43:51;14.50;;;9.95;;
67602;SDS011;54417;47.454;18.918;2022-10-17T05:49:25;20.83;;;11.50;;
67602;SDS011;54417;47.454;18.918;2022-10-17T05:55:09;18.92;;;11.98;;
67602;SDS011;54417;47.454;18.918;2022-10-17T06:00:34;20.08;;;12.07;;
67602;SDS011;54417;47.454;18.918;2022-10-17T06:06:01;20.85;;;12.68;;
67602;SDS011;54417;47.454;18.918;2022-10-17T06:11:27;22.05;;;13.25;;
67602;SDS011;54417;47.454;18.918;2022-10-17T06:16:51;25.10;;;15.15;;
67602;SDS011;54417;47.454;18.918;2022-10-17T06:22:15;20.63;;;12.90;;
67602;SDS011;54417;47.454;18.918;2022-10-17T06:27:42;25.83;;;15.57;;
67602;SDS011;54417;47.454;18.918;2022-10-17T06:33:06;36.08;;;16.13;;
67602;SDS011;54417;47.454;18.918;2022-10-17T06:38:30;31.33;;;16.48;;
67602;SDS011;54417;47.454;18.918;2022-10-17T06:43:57;30.55;;;17.33;;
67602;SDS011;54417;47.454;18.918;2022-10-17T06:49:39;30.00;;;15.88;;
67602;SDS011;54417;47.454;18.918;2022-10-17T06:55:18;30.55;;;15.50;;
67602;SDS011;54417;47.454;18.918;2022-10-17T07:01:04;32.95;;;16.58;;
67602;SDS011;54417;47.454;18.918;2022-10-17T07:06:30;23.13;;;14.73;;
67602;SDS011;54417;47.454;18.918;2022-10-17T07:12:00;23.95;;;13.93;;
67602;SDS011;54417;47.454;18.918;2022-10-17T07:17:26;22.65;;;12.80;;
67602;SDS011;54417;47.454;18.918;2022-10-17T07:22:50;19.42;;;11.38;;
67602;SDS011;54417;47.454;18.918;2022-10-17T07:28:14;17.55;;;10.77;;
67602;SDS011;54417;47.454;18.918;2022-10-17T07:33:39;25.83;;;11.18;;
67602;SDS011;54417;47.454;18.918;2022-10-17T07:39:03;17.27;;;10.35;;
67602;SDS011;54417;47.454;18.918;2022-10-17T07:44:29;18.00;;;10.73;;
67602;SDS011;54417;47.454;18.918;2022-10-17T07:49:55;18.65;;;9.60;;
67602;SDS011;54417;47.454;18.918;2022-10-17T07:55:18;18.17;;;10.05;;
67602;SDS011;54417;47.454;18.918;2022-10-17T08:00:42;17.38;;;10.57;;
67602;SDS011;54417;47.454;18.918;2022-10-17T08:06:10;18.77;;;9.63;;
67602;SDS011;54417;47.454;18.918;2022-10-17T08:11:34;15.82;;;9.98;;
67602;SDS011;54417;47.454;18.918;2022-10-17T08:16:58;15.57;;;9.25;;
67602;SDS011;54417;47.454;18.918;2022-10-17T08:22:23;23.42;;;9.10;;
67602;SDS011;54417;47.454;18.918;2022-10-17T08:27:47;15.50;;;9.43;;
67602;SDS011;54417;47.454;18.918;2022-10-17T08:33:10;15.10;;;9.15;;
67602;SDS011;54417;47.454;18.918;2022-10-17T08:38:35;15.15;;;8.88;;
67602;SDS011;54417;47.454;18.918;2022-10-17T08:44:07;20.27;;;9.83;;
67602;SDS011;54417;47.454;18.918;2022-10-17T08:49:40;17.50;;;9.20;;
67602;SDS011;54417;47.454;18.918;2022-10-17T08:55:13;25.30;;;9.25;;
67602;SDS011;54417;47.454;18.918;2022-10-17T09:00:45;18.20;;;8.77;;
67602;SDS011;54417;47.454;18.918;2022-10-17T09:06:17;16.42;;;9.00;;
67602;SDS011;54417;47.454;18.918;2022-10-17T09:11:54;15.82;;;8.57;;
67602;SDS011;54417;47.454;18.918;2022-10-17T09:17:27;17.45;;;8.32;;
67602;SDS011;54417;47.454;18.918;2022-10-17T09:22:57;18.65;;;8.85;;
67602;SDS011;54417;47.454;18.918;2022-10-17T09:28:26;16.58;;;7.90;;
67602;SDS011;54417;47.454;18.918;2022-10-17T09:33:54;13.10;;;7.57;;
67602;SDS011;54417;47.454;18.918;2022-10-17T09:39:21;13.93;;;7.60;;
67602;SDS011;54417;47.454;18.918;2022-10-17T09:44:49;11.05;;;7.05;;
67602;SDS011;54417;47.454;18.918;2022-10-17T09:50:19;12.27;;;6.82;;
67602;SDS011;54417;47.454;18.918;2022-10-17T09:55:46;9.90;;;5.60;;
67602;SDS011;54417;47.454;18.918;2022-10-17T10:01:15;15.32;;;6.57;;
67602;SDS011;54417;47.454;18.918;2022-10-17T10:07:00;11.43;;;6.18;;
67602;SDS011;54417;47.454;18.918;2022-10-17T10:12:25;13.43;;;4.80;;
67602;SDS011;54417;47.454;18.918;2022-10-17T10:17:52;10.15;;;4.15;;
67602;SDS011;54417;47.454;18.918;2022-10-17T10:23:16;9.50;;;4.88;;
67602;SDS011;54417;47.454;18.918;2022-10-17T10:28:49;12.40;;;4.53;;
67602;SDS011;54417;47.454;18.918;2022-10-17T10:34:17;8.50;;;4.35;;
67602;SDS011;54417;47.454;18.918;2022-10-17T10:39:45;8.63;;;3.97;;
67602;SDS011;54417;47.454;18.918;2022-10-17T10:45:14;7.75;;;4.65;;
67602;SDS011;54417;47.454;18.918;2022-10-17T10:51:01;10.38;;;4.15;;
67602;SDS011;54417;47.454;18.918;2022-10-17T10:56:30;11.23;;;4.65;;
67602;SDS011;54417;47.454;18.918;2022-10-17T11:01:59;9.10;;;4.25;;
67602;SDS011;54417;47.454;18.918;2022-10-17T11:07:28;10.75;;;4.45;;
67602;SDS011;54417;47.454;18.918;2022-10-17T11:12:55;15.88;;;4.47;;
67602;SDS011;54417;47.454;18.918;2022-10-17T11:18:23;9.32;;;4.38;;
67602;SDS011;54417;47.454;18.918;2022-10-17T11:23:52;7.43;;;3.70;;
67602;SDS011;54417;47.454;18.918;2022-10-17T11:29:26;10.05;;;3.95;;
67602;SDS011;54417;47.454;18.918;2022-10-17T11:34:52;10.32;;;4.53;;
67602;SDS011;54417;47.454;18.918;2022-10-17T11:40:26;9.95;;;4.15;;
67602;SDS011;54417;47.454;18.918;2022-10-17T11:45:54;11.60;;;4.40;;
67602;SDS011;54417;47.454;18.918;2022-10-17T11:51:21;7.97;;;3.88;;
67602;SDS011;54417;47.454;18.918;2022-10-17T11:57:11;9.65;;;3.70;;
67602;SDS011;54417;47.454;18.918;2022-10-17T12:02:44;8.60;;;4.53;;
67602;SDS011;54417;47.454;18.918;2022-10-17T12:08:16;7.80;;;3.70;;
67602;SDS011;54417;47.454;18.918;2022-10-17T12:13:53;10.63;;;3.70;;
67602;SDS011;54417;47.454;18.918;2022-10-17T12:19:19;4.93;;;2.92;;
67602;SDS011;54417;47.454;18.918;2022-10-17T12:24:56;6.35;;;3.08;;
67602;SDS011;54417;47.454;18.918;2022-10-17T12:30:24;7.22;;;3.45;;
67602;SDS011;54417;47.454;18.918;2022-10-17T12:35:49;5.95;;;2.95;;
67602;SDS011;54417;47.454;18.918;2022-10-17T12:41:14;6.20;;;3.38;;
67602;SDS011;54417;47.454;18.918;2022-10-17T12:52:17;11.57;;;3.15;;
67602;SDS011;54417;47.454;18.918;2022-10-17T12:57:50;5.75;;;3.50;;
67602;SDS011;54417;47.454;18.918;2022-10-17T13:03:19;10.05;;;2.55;;
67602;SDS011;54417;47.454;18.918;2022-10-17T13:08:46;7.72;;;3.33;;
67602;SDS011;54417;47.454;18.918;2022-10-17T13:14:19;8.98;;;3.25;;
67602;SDS011;54417;47.454;18.918;2022-10-17T13:19:46;5.82;;;3.00;;
67602;SDS011;54417;47.454;18.918;2022-10-17T13:25:12;7.28;;;2.70;;
67602;SDS011;54417;47.454;18.918;2022-10-17T13:30:44;6.23;;;3.30;;
67602;SDS011;54417;47.454;18.918;2022-10-17T13:36:13;9.80;;;3.00;;
67602;SDS011;54417;47.454;18.918;2022-10-17T13:41:40;12.68;;;3.30;;
67602;SDS011;54417;47.454;18.918;2022-10-17T13:47:04;6.72;;;3.58;;
67602;SDS011;54417;47.454;18.918;2022-10-17T13:52:29;19.75;;;3.55;;
67602;SDS011;54417;47.454;18.918;2022-10-17T13:58:08;4.68;;;3.03;;
67602;SDS011;54417;47.454;18.918;2022-10-17T14:03:39;6.95;;;2.53;;
67602;SDS011;54417;47.454;18.918;2022-10-17T14:09:16;9.07;;;3.05;;
67602;SDS011;54417;47.454;18.918;2022-10-17T14:14:45;8.05;;;3.33;;
67602;SDS011;54417;47.454;18.918;2022-10-17T14:20:31;12.15;;;2.95;;
67602;SDS011;54417;47.454;18.918;2022-10-17T14:26:17;12.25;;;3.05;;
67602;SDS011;54417;47.454;18.918;2022-10-17T14:31:42;8.38;;;3.47;;
67602;SDS011;54417;47.454;18.918;2022-10-17T14:37:08;4.53;;;2.95;;
67602;SDS011;54417;47.454;18.918;2022-10-17T14:42:38;9.02;;;3.42;;
67602;SDS011;54417;47.454;18.918;2022-10-17T14:48:05;7.57;;;3.47;;
67602;SDS011;54417;47.454;18.918;2022-10-17T14:53:32;9.03;;;3.27;;
67602;SDS011;54417;47.454;18.918;2022-10-17T14:58:57;8.05;;;3.38;;
67602;SDS011;54417;47.454;18.918;2022-10-17T15:04:23;10.02;;;4.55;;
67602;SDS011;54417;47.454;18.918;2022-10-17T15:09:47;9.00;;;4.25;;
67602;SDS011;54417;47.454;18.918;2022-10-17T15:15:14;10.57;;;3.63;;
67602;SDS011;54417;47.454;18.918;2022-10-17T15:20:37;8.45;;;3.60;;
67602;SDS011;54417;47.454;18.918;2022-10-17T15:26:01;9.13;;;3.58;;
67602;SDS011;54417;47.454;18.918;2022-10-17T15:31:29;8.55;;;3.92;;
67602;SDS011;54417;47.454;18.918;2022-10-17T15:36:53;7.13;;;3.83;;
67602;SDS011;54417;47.454;18.918;2022-10-17T15:42:17;11.10;;;4.13;;
67602;SDS011;54417;47.454;18.918;2022-10-17T15:47:49;8.88;;;3.97;;
67602;SDS011;54417;47.454;18.918;2022-10-17T15:53:15;19.80;;;4.88;;
67602;SDS011;54417;47.454;18.918;2022-10-17T15:58:38;12.43;;;4.55;;
67602;SDS011;54417;47.454;18.918;2022-10-17T16:04:04;13.20;;;5.38;;
67602;SDS011;54417;47.454;18.918;2022-10-17T16:09:28;14.73;;;5.22;;
67602;SDS011;54417;47.454;18.918;2022-10-17T16:14:53;9.05;;;4.50;;
67602;SDS011;54417;47.454;18.918;2022-10-17T16:20:23;15.15;;;5.05;;
67602;SDS011;54417;47.454;18.918;2022-10-17T16:25:48;29.15;;;5.82;;
67602;SDS011;54417;47.454;18.918;2022-10-17T16:31:17;6.95;;;5.32;;
67602;SDS011;54417;47.454;18.918;2022-10-17T16:36:46;7.85;;;5.60;;
67602;SDS011;54417;47.454;18.918;2022-10-17T16:42:09;15.88;;;6.70;;
67602;SDS011;54417;47.454;18.918;2022-10-17T16:47:33;14.38;;;6.47;;
67602;SDS011;54417;47.454;18.918;2022-10-17T16:52:59;13.02;;;6.90;;
67602;SDS011;54417;47.454;18.918;2022-10-17T16:58:28;14.70;;;6.82;;
67602;SDS011;54417;47.454;18.918;2022-10-17T17:03:54;14.60;;;7.78;;
67602;SDS011;54417;47.454;18.918;2022-10-17T17:09:20;16.30;;;7.95;;
67602;SDS011;54417;47.454;18.918;2022-10-17T17:14:44;14.18;;;8.82;;
67602;SDS011;54417;47.454;18.918;2022-10-17T17:20:09;18.02;;;9.50;;
67602;SDS011;54417;47.454;18.918;2022-10-17T17:25:34;22.15;;;11.98;;
67602;SDS011;54417;47.454;18.918;2022-10-17T17:30:57;22.85;;;12.93;;
67602;SDS011;54417;47.454;18.918;2022-10-17T17:36:22;18.73;;;10.68;;
67602;SDS011;54417;47.454;18.918;2022-10-17T17:41:48;22.88;;;9.50;;
67602;SDS011;54417;47.454;18.918;2022-10-17T17:47:12;17.98;;;7.72;;
67602;SDS011;54417;47.454;18.918;2022-10-17T17:52:35;13.80;;;8.45;;
67602;SDS011;54417;47.454;18.918;2022-10-17T17:58:02;17.13;;;8.43;;
67602;SDS011;54417;47.454;18.918;2022-10-17T18:03:26;13.02;;;7.35;;
67602;SDS011;54417;47.454;18.918;2022-10-17T18:08:50;17.52;;;8.13;;
67602;SDS011;54417;47.454;18.918;2022-10-17T18:14:16;12.07;;;7.57;;
67602;SDS011;54417;47.454;18.918;2022-10-17T18:19:44;16.30;;;7.20;;
67602;SDS011;54417;47.454;18.918;2022-10-17T18:25:08;13.73;;;7.40;;
67602;SDS011;54417;47.454;18.918;2022-10-17T18:30:36;15.55;;;9.30;;
67602;SDS011;54417;47.454;18.918;2022-10-17T18:36:03;16.83;;;9.05;;
67602;SDS011;54417;47.454;18.918;2022-10-17T18:41:28;18.23;;;9.32;;
67602;SDS011;54417;47.454;18.918;2022-10-17T18:46:54;20.90;;;9.95;;
67602;SDS011;54417;47.454;18.918;2022-10-17T18:52:25;51.00;;;12.77;;
67602;SDS011;54417;47.454;18.918;2022-10-17T18:57:49;58.15;;;14.40;;
67602;SDS011;54417;47.454;18.918;2022-10-17T19:03:15;57.08;;;13.43;;
67602;SDS011;54417;47.454;18.918;2022-10-17T19:08:40;53.55;;;15.48;;
67602;SDS011;54417;47.454;18.918;2022-10-17T19:14:06;52.10;;;15.35;;
67602;SDS011;54417;47.454;18.918;2022-10-17T19:19:35;57.28;;;15.93;;
67602;SDS011;54417;47.454;18.918;2022-10-17T19:24:59;38.85;;;12.93;;
67602;SDS011;54417;47.454;18.918;2022-10-17T19:30:22;27.50;;;12.80;;
67602;SDS011;54417;47.454;18.918;2022-10-17T19:35:54;26.30;;;10.60;;
67602;SDS011;54417;47.454;18.918;2022-10-17T19:41:18;18.95;;;10.27;;
67602;SDS011;54417;47.454;18.918;2022-10-17T19:46:44;19.83;;;9.93;;
67602;SDS011;54417;47.454;18.918;2022-10-17T19:52:12;16.17;;;8.60;;
67602;SDS011;54417;47.454;18.918;2022-10-17T19:57:36;16.55;;;9.32;;
67602;SDS011;54417;47.454;18.918;2022-10-17T20:03:00;16.98;;;8.93;;
67602;SDS011;54417;47.454;18.918;2022-10-17T20:08:25;19.10;;;10.40;;
67602;SDS011;54417;47.454;18.918;2022-10-17T20:13:50;33.15;;;12.60;;
67602;SDS011;54417;47.454;18.918;2022-10-17T20:19:13;26.02;;;9.98;;
67602;SDS011;54417;47.454;18.918;2022-10-17T20:24:39;19.58;;;9.80;;
67602;SDS011;54417;47.454;18.918;2022-10-17T20:30:03;25.73;;;10.57;;
67602;SDS011;54417;47.454;18.918;2022-10-17T20:35:27;19.27;;;9.45;;
67602;SDS011;54417;47.454;18.918;2022-10-17T20:40:52;14.25;;;8.85;;
67602;SDS011;54417;47.454;18.918;2022-10-17T20:46:16;16.10;;;8.98;;
67602;SDS011;54417;47.454;18.918;2022-10-17T20:51:57;16.80;;;9.27;;
67602;SDS011;54417;47.454;18.918;2022-10-17T20:57:23;15.10;;;8.93;;
67602;SDS011;54417;47.454;18.918;2022-10-17T21:02:46;17.63;;;10.07;;
67602;SDS011;54417;47.454;18.918;2022-10-17T21:08:10;20.55;;;9.75;;
67602;SDS011;54417;47.454;18.918;2022-10-17T21:13:35;14.65;;;9.00;;
67602;SDS011;54417;47.454;18.918;2022-10-17T21:18:59;13.88;;;8.57;;
67602;SDS011;54417;47.454;18.918;2022-10-17T21:24:23;14.80;;;8.85;;
67602;SDS011;54417;47.454;18.918;2022-10-17T21:29:48;18.15;;;9.38;;
67602;SDS011;54417;47.454;18.918;2022-10-17T21:35:15;15.50;;;8.40;;
67602;SDS011;54417;47.454;18.918;2022-10-17T21:40:44;14.77;;;9.00;;
67602;SDS011;54417;47.454;18.918;2022-10-17T21:46:12;14.73;;;9.00;;
67602;SDS011;54417;47.454;18.918;2022-10-17T21:51:38;16.98;;;9.75;;
67602;SDS011;54417;47.454;18.918;2022-10-17T21:57:03;18.10;;;10.52;;
67602;SDS011;54417;47.454;18.918;2022-10-17T22:02:28;22.35;;;13.07;;
67602;SDS011;54417;47.454;18.918;2022-10-17T22:07:52;23.17;;;12.43;;
67602;SDS011;54417;47.454;18.918;2022-10-17T22:13:16;20.83;;;11.40;;
67602;SDS011;54417;47.454;18.918;2022-10-17T22:18:41;24.95;;;10.75;;
67602;SDS011;54417;47.454;18.918;2022-10-17T22:24:06;22.13;;;11.30;;
67602;SDS011;54417;47.454;18.918;2022-10-17T22:29:32;16.30;;;9.93;;
67602;SDS011;54417;47.454;18.918;2022-10-17T22:34:57;21.75;;;10.43;;
67602;SDS011;54417;47.454;18.918;2022-10-17T22:40:21;17.60;;;9.98;;
67602;SDS011;54417;47.454;18.918;2022-10-17T22:45:50;23.45;;;11.50;;
67602;SDS011;54417;47.454;18.918;2022-10-17T22:51:15;17.15;;;10.75;;
67602;SDS011;54417;47.454;18.918;2022-10-17T22:56:39;16.73;;;9.82;;
67602;SDS011;54417;47.454;18.918;2022-10-17T23:02:02;13.30;;;10.13;;
67602;SDS011;54417;47.454;18.918;2022-10-17T23:07:27;14.20;;;9.45;;
67602;SDS011;54417;47.454;18.918;2022-10-17T23:12:51;15.18;;;10.18;;
67602;SDS011;54417;47.454;18.918;2022-10-17T23:18:15;20.30;;;10.02;;
67602;SDS011;54417;47.454;18.918;2022-10-17T23:23:40;16.13;;;10.02;;
67602;SDS011;54417;47.454;18.918;2022-10-17T23:29:04;22.00;;;12.65;;
67602;SDS011;54417;47.454;18.918;2022-10-17T23:34:28;17.88;;;11.52;;
67602;SDS011;54417;47.454;18.918;2022-10-17T23:39:53;18.90;;;11.50;;
67602;SDS011;54417;47.454;18.918;2022-10-17T23:45:17;14.07;;;9.60;;
67602;SDS011;54417;47.454;18.918;2022-10-17T23:50:41;22.63;;;11.82;;
67602;SDS011;54417;47.454;18.918;2022-10-17T23:56:07;21.63;;;11.32;;
